CheckWX is a tool to help pilots better visualize weather data.  It is not intended as a substitute for an official pre-flight weather briefing.

07:25:55 UTC

KDFW TAF
Dallas-Fort Worth International Airport
Dallas-Fort Worth, Texas, USA
KDFW 170624Z 1706/1812 17011KT P6SM SCT010 BKN070 FM170900 28005KT P6SM BKN011 FM171600 32009KT P6SM SCT025 BKN060 FM172200 02006KT P6SM SCT250

Jun-17@
06:00 UTC

Jun-17 @ 06:00 UTC

Jun-17@
09:00 UTC

Jun-17 @ 09:00 UTC

KDFW 170624Z 1706/1812 17011KT P6SM SCT010 BKN070
Wind
  • 170° at 11 KTS
Cloud Levels
  • Scattered at 1,000' AGL
  • Broken at 7,000' AGL

Jun-17@
09:00 UTC

Jun-17 @ 09:00 UTC

Jun-17@
16:00 UTC

Jun-17 @ 16:00 UTC

FM170900 28005KT P6SM BKN011

From

From Standard forecast or significant change

Wind
  • 280° at 5 KTS
Cloud Levels
  • Broken at 1,100' AGL

Jun-17@
16:00 UTC

Jun-17 @ 16:00 UTC

Jun-17@
22:00 UTC

Jun-17 @ 22:00 UTC

FM171600 32009KT P6SM SCT025 BKN060

From

From Standard forecast or significant change

Wind
  • 320° at 9 KTS
Cloud Levels
  • Scattered at 2,500' AGL
  • Broken at 6,000' AGL

Jun-17@
22:00 UTC

Jun-17 @ 22:00 UTC

Jun-18@
12:00 UTC

Jun-18 @ 12:00 UTC

FM172200 02006KT P6SM SCT250

From

From Standard forecast or significant change

Wind
  • 020° at 6 KTS
Cloud Levels
  • Scattered at 25,000' AGL